createdAt,value
2022-12-17T00:00:50.319Z,24.60
2022-12-17T00:03:35.920Z,24.73
2022-12-17T00:06:21.204Z,24.20
2022-12-17T00:09:06.380Z,24.77
2022-12-17T00:11:51.504Z,23.57
2022-12-17T00:14:41.518Z,24.90
2022-12-17T00:17:26.549Z,24.43
2022-12-17T00:20:11.304Z,25.10
2022-12-17T00:22:55.974Z,24.43
2022-12-17T00:25:42.660Z,24.43
2022-12-17T00:28:31.000Z,23.63
2022-12-17T00:31:16.091Z,24.80
2022-12-17T00:34:01.096Z,23.37
2022-12-17T00:36:45.964Z,24.47
2022-12-17T00:39:30.908Z,24.63
2022-12-17T00:42:15.966Z,25.73
2022-12-17T00:45:01.002Z,26.00
2022-12-17T00:47:46.152Z,26.87
2022-12-17T00:50:31.271Z,24.87
2022-12-17T00:53:16.266Z,26.33
2022-12-17T00:56:08.834Z,26.47
2022-12-17T00:58:54.251Z,27.67
2022-12-17T01:01:39.479Z,26.43
2022-12-17T01:04:24.966Z,26.33
2022-12-17T01:07:10.000Z,25.43
2022-12-17T01:09:55.243Z,25.47
2022-12-17T01:12:41.077Z,24.60
2022-12-17T01:15:26.346Z,23.73
2022-12-17T01:18:11.367Z,24.13
2022-12-17T01:20:56.127Z,23.47
2022-12-17T01:23:41.496Z,25.40
2022-12-17T01:26:34.243Z,24.73
2022-12-17T01:29:19.166Z,23.57
2022-12-17T01:32:04.367Z,24.27
2022-12-17T01:34:49.528Z,23.37
2022-12-17T01:37:34.300Z,23.83
2022-12-17T01:40:19.453Z,23.17
2022-12-17T01:43:05.037Z,23.37
2022-12-17T01:46:08.441Z,23.60
2022-12-17T01:49:03.136Z,24.33
2022-12-17T01:51:49.799Z,23.23
2022-12-17T01:54:35.877Z,23.63
2022-12-17T01:57:21.434Z,23.53
2022-12-17T02:00:15.560Z,24.53
2022-12-17T02:03:01.324Z,23.17
2022-12-17T02:05:52.042Z,22.87
2022-12-17T02:09:03.331Z,22.27
2022-12-17T02:12:20.318Z,23.43
2022-12-17T02:15:12.017Z,21.97
2022-12-17T02:18:04.696Z,22.67
2022-12-17T02:20:58.442Z,23.13
2022-12-17T02:24:07.986Z,22.33
2022-12-17T02:27:15.547Z,22.87
2022-12-17T02:30:02.682Z,22.73
2022-12-17T02:32:48.244Z,21.97
2022-12-17T02:35:48.091Z,21.10
2022-12-17T02:38:41.492Z,22.40
2022-12-17T02:41:29.202Z,22.83
2022-12-17T02:44:15.010Z,22.97
2022-12-17T02:47:00.659Z,21.80
2022-12-17T02:49:45.679Z,22.00
2022-12-17T02:52:34.900Z,21.93
2022-12-17T02:55:20.746Z,24.53
2022-12-17T02:58:05.876Z,22.23
2022-12-17T03:00:50.678Z,22.80
2022-12-17T03:03:36.405Z,23.53
2022-12-17T03:06:21.838Z,25.83
2022-12-17T03:09:06.940Z,24.43
2022-12-17T03:11:51.850Z,22.70
2022-12-17T03:14:36.964Z,22.47
2022-12-17T03:17:21.761Z,22.80
2022-12-17T03:20:06.765Z,23.10
2022-12-17T03:22:51.794Z,21.10
2022-12-17T03:25:36.862Z,22.13
2022-12-17T03:28:27.185Z,22.10
2022-12-17T03:31:12.328Z,22.27
2022-12-17T03:33:57.444Z,22.50
2022-12-17T03:36:42.526Z,22.27
2022-12-17T03:39:27.229Z,19.73
2022-12-17T03:42:12.136Z,21.33
2022-12-17T03:44:57.159Z,21.80
2022-12-17T03:47:42.250Z,21.00
2022-12-17T03:50:27.403Z,21.43
2022-12-17T03:53:12.415Z,22.27
2022-12-17T03:55:57.268Z,22.50
2022-12-17T03:58:42.447Z,21.27
2022-12-17T04:01:27.722Z,21.97
2022-12-17T04:04:12.653Z,22.10
2022-12-17T04:07:11.273Z,22.30
2022-12-17T04:09:56.069Z,21.63
2022-12-17T04:12:41.299Z,20.37
2022-12-17T04:15:26.945Z,21.93
2022-12-17T04:18:11.804Z,21.70
2022-12-17T04:20:56.827Z,19.47
2022-12-17T04:23:42.089Z,22.27
2022-12-17T04:26:26.955Z,21.33
2022-12-17T04:29:11.736Z,21.30
2022-12-17T04:31:56.690Z,21.27
2022-12-17T04:34:41.458Z,20.10
2022-12-17T04:37:26.496Z,20.83
2022-12-17T04:40:11.649Z,20.17
2022-12-17T04:42:56.752Z,21.23
2022-12-17T04:45:41.860Z,21.33
2022-12-17T04:48:27.952Z,20.90
2022-12-17T04:51:13.334Z,22.17
2022-12-17T04:53:58.000Z,22.40
2022-12-17T04:56:44.103Z,21.70
2022-12-17T04:59:29.246Z,21.63
2022-12-17T05:02:14.398Z,21.83
2022-12-17T05:04:59.640Z,21.77
2022-12-17T05:07:44.575Z,22.30
2022-12-17T05:10:29.578Z,21.40
2022-12-17T05:13:19.199Z,23.33
2022-12-17T05:16:04.708Z,23.93
2022-12-17T05:18:50.079Z,24.57
2022-12-17T05:21:35.751Z,25.40
2022-12-17T05:24:20.856Z,27.07
2022-12-17T05:27:06.493Z,26.80
2022-12-17T05:29:51.552Z,27.27
2022-12-17T05:32:36.545Z,27.77
2022-12-17T05:35:21.248Z,26.47
2022-12-17T05:38:05.993Z,25.20
2022-12-17T05:40:51.110Z,27.00
2022-12-17T05:43:36.311Z,27.57
2022-12-17T05:46:21.866Z,26.80
2022-12-17T05:49:06.926Z,26.33
2022-12-17T05:51:51.944Z,29.23
2022-12-17T05:54:36.901Z,25.87
2022-12-17T05:57:22.013Z,29.67
2022-12-17T06:00:07.117Z,27.77
2022-12-17T06:02:52.295Z,29.53
2022-12-17T06:05:37.593Z,27.57
2022-12-17T06:08:26.593Z,28.03
2022-12-17T06:11:12.091Z,29.20
2022-12-17T06:13:57.264Z,29.23
2022-12-17T06:16:42.131Z,28.97
2022-12-17T06:19:26.952Z,29.23
2022-12-17T06:22:12.148Z,28.07
2022-12-17T06:24:57.276Z,28.23
2022-12-17T06:27:42.241Z,28.23
2022-12-17T06:30:27.896Z,27.83
2022-12-17T06:33:25.535Z,28.20
2022-12-17T06:36:18.121Z,28.67
2022-12-17T06:39:06.471Z,30.07
2022-12-17T06:41:51.509Z,28.60
2022-12-17T06:44:37.361Z,29.33
2022-12-17T06:47:22.370Z,29.47
2022-12-17T06:50:07.207Z,29.50
2022-12-17T06:52:51.997Z,29.23
2022-12-17T06:55:37.134Z,29.57
2022-12-17T06:58:21.950Z,27.37
2022-12-17T07:01:07.137Z,29.87
2022-12-17T07:03:52.132Z,28.97
2022-12-17T07:06:37.071Z,30.13
2022-12-17T07:09:22.177Z,31.67
2022-12-17T07:12:07.008Z,29.77
2022-12-17T07:14:52.189Z,28.23
2022-12-17T07:17:37.439Z,28.07
2022-12-17T07:20:22.658Z,28.97
2022-12-17T07:23:07.761Z,29.43
2022-12-17T07:25:52.881Z,29.63
2022-12-17T07:28:38.948Z,28.80
2022-12-17T07:31:23.948Z,28.90
2022-12-17T07:34:09.210Z,28.87
2022-12-17T07:36:55.079Z,29.03
2022-12-17T07:39:39.979Z,29.83
2022-12-17T07:42:24.749Z,29.87
2022-12-17T07:45:09.866Z,30.30
2022-12-17T07:47:54.681Z,30.20
2022-12-17T07:50:39.904Z,31.17
2022-12-17T07:53:28.285Z,31.57
2022-12-17T07:56:13.338Z,29.83
2022-12-17T07:58:58.344Z,28.60
2022-12-17T08:01:43.934Z,30.80
2022-12-17T08:04:29.117Z,29.90
2022-12-17T08:07:34.171Z,30.73
2022-12-17T08:10:19.311Z,29.00
2022-12-17T08:13:18.543Z,28.93
2022-12-17T08:16:04.202Z,29.20
2022-12-17T08:18:49.114Z,28.70
2022-12-17T08:21:34.499Z,28.93
2022-12-17T08:24:19.487Z,28.57
2022-12-17T08:27:04.657Z,27.30
2022-12-17T08:30:09.344Z,26.67
2022-12-17T08:32:54.269Z,26.80
2022-12-17T08:35:46.884Z,28.97
2022-12-17T08:38:31.924Z,27.90
2022-12-17T08:41:26.647Z,28.17
2022-12-17T08:44:11.614Z,27.90
2022-12-17T08:46:56.593Z,27.87
2022-12-17T08:49:41.754Z,27.80
2022-12-17T08:52:26.634Z,28.47
2022-12-17T08:55:11.569Z,29.23
2022-12-17T08:57:56.530Z,29.17
2022-12-17T09:00:41.610Z,29.17
2022-12-17T09:03:27.548Z,28.87
2022-12-17T09:06:12.585Z,30.80
2022-12-17T09:08:57.727Z,29.13
2022-12-17T09:11:42.570Z,31.07
2022-12-17T09:14:27.520Z,29.33
2022-12-17T09:17:12.248Z,30.33
2022-12-17T09:19:57.445Z,28.13
2022-12-17T09:22:42.484Z,28.80
2022-12-17T09:25:27.572Z,27.60
2022-12-17T09:28:12.857Z,26.63
2022-12-17T09:30:58.000Z,24.97
2022-12-17T09:33:42.994Z,24.77
2022-12-17T09:36:27.993Z,26.73
2022-12-17T09:39:13.063Z,26.50
2022-12-17T09:42:04.324Z,24.33
2022-12-17T09:45:29.745Z,24.80
2022-12-17T09:48:32.595Z,22.60
2022-12-17T09:51:17.705Z,25.37
2022-12-17T09:54:05.120Z,24.50
2022-12-17T09:56:51.760Z,24.77
2022-12-17T09:59:54.769Z,24.60
2022-12-17T10:02:43.971Z,23.47
2022-12-17T10:05:34.655Z,24.90
2022-12-17T10:08:19.857Z,24.60
2022-12-17T10:11:05.401Z,25.43
2022-12-17T10:13:50.516Z,25.23
2022-12-17T10:16:44.967Z,24.90
2022-12-17T10:19:33.513Z,25.17
2022-12-17T10:22:32.236Z,24.70
2022-12-17T10:25:24.431Z,24.57
2022-12-17T10:28:09.519Z,24.67
2022-12-17T10:30:55.351Z,25.50
2022-12-17T10:33:40.476Z,25.30
2022-12-17T10:36:39.183Z,27.20
2022-12-17T10:39:25.380Z,25.77
2022-12-17T10:42:10.601Z,24.37
2022-12-17T10:44:56.729Z,26.93
2022-12-17T10:47:46.019Z,26.70
2022-12-17T10:50:36.082Z,25.67
2022-12-17T10:53:22.882Z,26.00
2022-12-17T10:56:16.994Z,24.07
2022-12-17T10:59:07.962Z,25.93
2022-12-17T11:01:53.667Z,27.30
2022-12-17T11:04:42.865Z,26.07
2022-12-17T11:07:33.108Z,28.80
2022-12-17T11:10:19.705Z,26.97
2022-12-17T11:13:18.453Z,27.33
2022-12-17T11:16:11.672Z,27.20
2022-12-17T11:19:09.186Z,26.83
2022-12-17T11:21:59.028Z,26.80
2022-12-17T11:24:46.566Z,27.27
2022-12-17T11:27:37.053Z,28.37
2022-12-17T11:30:31.002Z,28.47
2022-12-17T11:33:36.842Z,26.80
2022-12-17T11:36:38.524Z,27.13
2022-12-17T11:39:27.301Z,28.37
2022-12-17T11:42:16.546Z,28.20
2022-12-17T11:45:40.246Z,28.67
2022-12-17T11:48:36.202Z,27.43
2022-12-17T11:51:27.919Z,27.97
2022-12-17T11:54:22.859Z,27.33
2022-12-17T11:57:32.934Z,28.07
2022-12-17T12:00:34.297Z,26.97
2022-12-17T12:03:58.026Z,27.07
2022-12-17T12:06:57.177Z,27.77
2022-12-17T12:10:18.055Z,27.63
2022-12-17T12:13:19.933Z,26.83
2022-12-17T12:16:30.403Z,26.63
2022-12-17T12:19:43.709Z,26.13
2022-12-17T12:22:43.990Z,26.90
2022-12-17T12:25:44.363Z,27.20
2022-12-17T12:28:37.491Z,26.67
2022-12-17T12:31:35.103Z,28.13
2022-12-17T12:34:24.674Z,28.37
2022-12-17T12:37:10.029Z,28.90
2022-12-17T12:40:20.398Z,28.90
2022-12-17T12:43:15.005Z,27.30
2022-12-17T12:46:14.755Z,26.97
2022-12-17T12:49:28.190Z,27.23
2022-12-17T12:52:14.522Z,27.17
2022-12-17T12:55:05.811Z,27.40
2022-12-17T12:57:53.196Z,25.03
2022-12-17T13:00:45.959Z,25.37
2022-12-17T13:03:50.200Z,26.47
2022-12-17T13:06:41.732Z,27.17
2022-12-17T13:09:30.898Z,26.33
2022-12-17T13:12:04.959Z,28.87
2022-12-17T13:14:59.238Z,27.13
2022-12-17T13:17:30.842Z,26.80
2022-12-17T13:19:57.173Z,25.47
2022-12-17T13:22:24.500Z,26.47
2022-12-17T13:24:53.087Z,27.03
2022-12-17T13:27:30.183Z,26.80
2022-12-17T13:29:57.222Z,27.63
2022-12-17T13:32:29.205Z,27.00
2022-12-17T13:35:29.004Z,25.50
2022-12-17T13:38:14.344Z,25.13
2022-12-17T13:40:48.749Z,24.60
2022-12-17T13:43:20.770Z,26.60
2022-12-17T13:45:47.407Z,26.33
2022-12-17T13:48:21.303Z,25.93
2022-12-17T13:50:55.733Z,26.67
2022-12-17T13:53:22.179Z,25.17
2022-12-17T13:55:53.480Z,25.30
2022-12-17T13:58:24.508Z,24.80
2022-12-17T14:00:51.284Z,24.13
2022-12-17T14:03:37.076Z,25.17
2022-12-17T14:06:09.725Z,24.93
2022-12-17T14:08:36.751Z,24.17
2022-12-17T14:11:22.064Z,24.67
2022-12-17T14:13:58.686Z,23.63
2022-12-17T14:16:25.119Z,23.33
2022-12-17T14:18:54.238Z,23.27
2022-12-17T14:21:25.739Z,21.93
2022-12-17T14:23:52.603Z,23.27
2022-12-17T14:26:19.030Z,22.07
2022-12-17T14:28:50.231Z,23.40
2022-12-17T14:31:27.127Z,23.23
2022-12-17T14:34:08.772Z,23.13
2022-12-17T14:36:37.854Z,23.97
2022-12-17T14:39:27.039Z,24.00
2022-12-17T14:42:15.234Z,22.47
2022-12-17T14:44:53.611Z,24.07
2022-12-17T14:47:22.452Z,22.77
2022-12-17T14:50:10.205Z,24.60
2022-12-17T14:52:50.718Z,23.90
2022-12-17T14:55:55.874Z,23.80
2022-12-17T14:58:23.919Z,24.40
2022-12-17T15:00:53.638Z,22.77
2022-12-17T15:03:23.061Z,24.13
2022-12-17T15:05:56.857Z,23.47
2022-12-17T15:08:23.435Z,22.80
2022-12-17T15:10:50.050Z,22.97
2022-12-17T15:13:16.475Z,22.90
2022-12-17T15:15:43.022Z,24.27
2022-12-17T15:18:09.573Z,24.87
2022-12-17T15:20:36.112Z,24.27
2022-12-17T15:23:02.605Z,26.33
2022-12-17T15:25:29.224Z,26.40
2022-12-17T15:27:55.701Z,26.03
2022-12-17T15:30:22.139Z,26.60
2022-12-17T15:32:48.619Z,27.23
2022-12-17T15:35:15.209Z,28.00
2022-12-17T15:37:41.670Z,28.27
2022-12-17T15:40:10.748Z,28.73
2022-12-17T15:42:56.824Z,26.53
2022-12-17T15:45:25.124Z,27.87
2022-12-17T15:47:51.522Z,26.77
2022-12-17T15:50:17.949Z,25.67
2022-12-17T15:52:44.383Z,25.20
2022-12-17T15:55:14.041Z,24.67
2022-12-17T15:57:40.522Z,27.03
2022-12-17T16:00:07.950Z,26.50
2022-12-17T16:02:34.652Z,27.20
2022-12-17T16:05:01.184Z,28.37
2022-12-17T16:07:27.564Z,28.27
2022-12-17T16:09:53.995Z,27.93
2022-12-17T16:12:20.448Z,27.87
2022-12-17T16:14:46.976Z,26.30
2022-12-17T16:17:13.418Z,27.10
2022-12-17T16:19:39.905Z,26.97
2022-12-17T16:22:06.747Z,26.67
2022-12-17T16:24:33.160Z,27.90
2022-12-17T16:27:17.485Z,28.20
2022-12-17T16:29:44.366Z,28.27
2022-12-17T16:32:10.763Z,26.27
2022-12-17T16:34:37.152Z,27.30
2022-12-17T16:37:03.637Z,28.10
2022-12-17T16:39:30.105Z,26.67
2022-12-17T16:41:56.888Z,28.13
2022-12-17T16:44:23.454Z,27.87
2022-12-17T16:46:50.057Z,29.13
2022-12-17T16:49:19.230Z,29.97
2022-12-17T16:51:46.933Z,29.00
2022-12-17T16:54:15.840Z,29.37
2022-12-17T16:56:43.039Z,28.73
2022-12-17T16:59:10.581Z,28.30
2022-12-17T17:01:38.361Z,27.23
2022-12-17T17:04:06.756Z,26.60
2022-12-17T17:06:34.253Z,27.43
2022-12-17T17:09:04.135Z,27.70
2022-12-17T17:11:30.558Z,28.43
2022-12-17T17:13:57.125Z,27.60
2022-12-17T17:16:25.240Z,28.27
2022-12-17T17:18:53.541Z,27.47
2022-12-17T17:21:19.886Z,27.87
2022-12-17T17:23:47.953Z,26.73
2022-12-17T17:26:14.864Z,27.27
2022-12-17T17:28:42.059Z,25.50
2022-12-17T17:31:11.959Z,25.43
2022-12-17T17:33:42.966Z,26.13
2022-12-17T17:36:12.313Z,25.50
2022-12-17T17:38:40.394Z,25.33
2022-12-17T17:41:09.635Z,26.17
2022-12-17T17:43:36.132Z,27.03
2022-12-17T17:46:11.471Z,25.47
2022-12-17T17:48:38.411Z,25.77
2022-12-17T17:51:26.084Z,26.20
2022-12-17T17:54:10.975Z,25.70
2022-12-17T17:56:41.726Z,26.77
2022-12-17T17:59:11.060Z,24.43
2022-12-17T18:01:40.451Z,25.57
2022-12-17T18:04:10.090Z,25.57
2022-12-17T18:06:37.593Z,24.70
2022-12-17T18:09:04.532Z,25.30
2022-12-17T18:11:31.615Z,25.67
2022-12-17T18:13:58.904Z,26.80
2022-12-17T18:16:32.612Z,25.73
2022-12-17T18:19:00.744Z,25.07
2022-12-17T18:21:28.661Z,26.20
2022-12-17T18:24:01.085Z,27.63
2022-12-17T18:26:29.947Z,25.10
2022-12-17T18:28:58.436Z,26.57
2022-12-17T18:31:26.413Z,26.70
2022-12-17T18:33:58.540Z,25.83
2022-12-17T18:36:34.164Z,27.00
2022-12-17T18:39:03.730Z,26.73
2022-12-17T18:41:48.934Z,26.03
2022-12-17T18:44:16.240Z,25.13
2022-12-17T18:46:43.116Z,25.00
2022-12-17T18:49:11.571Z,26.70
2022-12-17T18:51:40.372Z,26.10
2022-12-17T18:54:08.474Z,25.70
2022-12-17T18:56:59.848Z,26.00
2022-12-17T18:59:28.708Z,25.43
2022-12-17T19:01:58.604Z,24.53
2022-12-17T19:04:25.618Z,23.80
2022-12-17T19:06:53.609Z,26.10
2022-12-17T19:09:34.330Z,27.07
2022-12-17T19:12:01.344Z,25.20
2022-12-17T19:14:27.912Z,26.10
2022-12-17T19:16:55.651Z,26.07
2022-12-17T19:19:23.015Z,26.50
2022-12-17T19:21:51.871Z,25.53
2022-12-17T19:24:19.243Z,23.87
2022-12-17T19:26:45.884Z,23.83
2022-12-17T19:29:13.678Z,23.87
2022-12-17T19:31:40.566Z,23.87
2022-12-17T19:34:12.689Z,25.63
2022-12-17T19:36:39.887Z,25.93
2022-12-17T19:39:08.553Z,24.90
2022-12-17T19:41:35.153Z,27.83
2022-12-17T19:44:04.484Z,25.20
2022-12-17T19:46:32.351Z,24.30
2022-12-17T19:48:58.819Z,25.57
2022-12-17T19:51:27.897Z,24.07
2022-12-17T19:53:55.146Z,24.73
2022-12-17T19:56:26.358Z,24.83
2022-12-17T19:58:55.343Z,25.73
2022-12-17T20:01:24.838Z,25.70
2022-12-17T20:03:52.058Z,25.27
2022-12-17T20:06:20.571Z,25.73
2022-12-17T20:08:47.089Z,25.30
2022-12-17T20:11:36.120Z,26.93
2022-12-17T20:14:20.658Z,23.23
2022-12-17T20:16:52.748Z,25.57
2022-12-17T20:19:21.752Z,25.93
2022-12-17T20:21:48.715Z,25.73
2022-12-17T20:24:16.627Z,28.50
2022-12-17T20:26:43.814Z,26.20
2022-12-17T20:29:10.508Z,25.87
2022-12-17T20:31:37.068Z,26.17
2022-12-17T20:34:04.710Z,25.63
2022-12-17T20:36:31.194Z,27.20
2022-12-17T20:38:57.771Z,25.97
2022-12-17T20:41:26.612Z,24.37
2022-12-17T20:43:53.748Z,24.93
2022-12-17T20:46:21.597Z,26.53
2022-12-17T20:48:48.071Z,25.83
2022-12-17T20:51:17.346Z,26.07
2022-12-17T20:53:44.794Z,25.13
2022-12-17T20:56:14.336Z,25.37
2022-12-17T20:58:41.856Z,25.93
2022-12-17T21:01:16.811Z,25.23
2022-12-17T21:03:43.459Z,24.47
2022-12-17T21:06:13.069Z,24.37
2022-12-17T21:08:44.797Z,24.20
2022-12-17T21:11:15.591Z,25.10
2022-12-17T21:13:42.422Z,24.13
2022-12-17T21:16:29.037Z,24.43
2022-12-17T21:18:56.514Z,25.13
2022-12-17T21:21:25.785Z,25.27
2022-12-17T21:23:52.224Z,25.77
2022-12-17T21:26:24.348Z,24.67
2022-12-17T21:28:52.592Z,25.83
2022-12-17T21:31:25.422Z,26.27
2022-12-17T21:33:55.510Z,26.23
2022-12-17T21:36:23.409Z,27.73
2022-12-17T21:38:51.204Z,25.80
2022-12-17T21:41:20.118Z,25.47
2022-12-17T21:43:46.568Z,26.20
2022-12-17T21:46:13.875Z,24.37
2022-12-17T21:48:42.645Z,25.60
2022-12-17T21:51:12.552Z,24.47
2022-12-17T21:53:42.722Z,24.40
2022-12-17T21:56:15.122Z,24.83
2022-12-17T21:58:42.655Z,25.23
2022-12-17T22:01:24.971Z,24.50
2022-12-17T22:03:53.894Z,24.70
2022-12-17T22:06:24.473Z,23.53
2022-12-17T22:08:56.811Z,23.67
2022-12-17T22:11:27.687Z,25.47
2022-12-17T22:14:08.835Z,23.50
2022-12-17T22:16:35.940Z,22.77
2022-12-17T22:19:03.892Z,23.33
2022-12-17T22:21:34.143Z,24.50
2022-12-17T22:24:00.968Z,23.70
2022-12-17T22:26:27.870Z,24.67
2022-12-17T22:28:54.345Z,23.17
2022-12-17T22:31:39.757Z,23.90
2022-12-17T22:35:23.151Z,23.93
2022-12-17T22:39:04.779Z,23.17
2022-12-17T22:43:52.440Z,23.93
2022-12-17T22:44:43.457Z,23.37
2022-12-17T22:45:32.932Z,22.77
2022-12-17T22:47:59.452Z,24.30
2022-12-17T22:50:28.163Z,22.87
2022-12-17T22:52:59.245Z,23.00
2022-12-17T22:55:25.786Z,23.13
2022-12-17T22:57:53.850Z,23.70
2022-12-17T23:00:26.140Z,24.33
2022-12-17T23:02:54.480Z,23.47
2022-12-17T23:05:25.514Z,23.00
2022-12-17T23:07:52.191Z,23.10
2022-12-17T23:10:19.193Z,24.17
2022-12-17T23:12:52.311Z,23.33
2022-12-17T23:15:27.363Z,24.70
2022-12-17T23:17:56.365Z,24.63
2022-12-17T23:20:23.021Z,23.30
2022-12-17T23:22:49.724Z,24.63
2022-12-17T23:25:16.465Z,23.93
2022-12-17T23:27:44.086Z,22.67
2022-12-17T23:30:12.115Z,24.30
2022-12-17T23:32:38.744Z,24.07
2022-12-17T23:35:05.882Z,23.90
2022-12-17T23:37:36.676Z,23.50
2022-12-17T23:40:08.021Z,23.87
2022-12-17T23:42:34.419Z,25.40
2022-12-17T23:45:00.812Z,24.03
2022-12-17T23:47:27.255Z,23.13
2022-12-17T23:49:53.841Z,24.27
2022-12-17T23:52:20.340Z,22.60
2022-12-17T23:54:46.720Z,23.50
2022-12-17T23:57:13.200Z,22.83
2022-12-17T23:59:39.751Z,23.70
